createdAt,value
2022-10-13T00:00:11.557Z,100998.25
2022-10-13T00:02:37.994Z,101008.00
2022-10-13T00:05:04.513Z,101003.63
2022-10-13T00:07:30.868Z,100995.53
2022-10-13T00:09:57.273Z,100993.88
2022-10-13T00:12:23.650Z,100995.53
2022-10-13T00:14:50.237Z,100997.63
2022-10-13T00:17:16.661Z,100986.25
2022-10-13T00:19:43.102Z,100987.91
2022-10-13T00:22:09.538Z,100974.41
2022-10-13T00:24:35.973Z,100979.81
2022-10-13T00:27:02.474Z,100978.16
2022-10-13T00:29:28.854Z,100969.84
2022-10-13T00:31:55.363Z,100965.72
2022-10-13T00:34:21.781Z,100972.75
2022-10-13T00:36:48.226Z,100971.09
2022-10-13T00:39:14.861Z,100960.78
2022-10-13T00:41:41.373Z,100956.66
2022-10-13T00:44:27.866Z,100966.59
2022-10-13T00:46:54.277Z,100961.38
2022-10-13T00:49:20.734Z,100972.41
2022-10-13T00:51:49.351Z,100973.44
2022-10-13T00:54:18.166Z,100973.66
2022-10-13T00:56:45.696Z,100980.09
2022-10-13T00:59:14.050Z,100975.75
2022-10-13T01:01:40.578Z,100974.91
2022-10-13T01:04:07.027Z,100978.66
2022-10-13T01:06:34.023Z,100968.94
2022-10-13T01:09:00.445Z,100977.03
2022-10-13T01:11:50.207Z,100967.06
2022-10-13T01:14:16.630Z,100965.41
2022-10-13T01:16:45.934Z,100973.50
2022-10-13T01:19:15.458Z,100980.75
2022-10-13T01:21:46.104Z,100968.31
2022-10-13T01:24:18.451Z,100971.00
2022-10-13T01:26:47.020Z,100972.06
2022-10-13T01:29:31.951Z,100976.41
2022-10-13T01:31:58.330Z,100971.25
2022-10-13T01:34:30.746Z,100971.25
2022-10-13T01:37:17.467Z,100980.16
2022-10-13T01:39:51.418Z,100972.06
2022-10-13T01:42:20.280Z,100968.31
2022-10-13T01:44:51.558Z,100961.91
2022-10-13T01:47:18.987Z,100962.94
2022-10-13T01:49:46.563Z,100955.88
2022-10-13T01:52:15.823Z,100957.53
2022-10-13T01:54:42.655Z,100943.47
2022-10-13T01:57:35.229Z,100952.59
2022-10-13T02:00:04.347Z,100945.56
2022-10-13T02:02:40.091Z,100938.50
2022-10-13T02:05:17.651Z,100949.72
2022-10-13T02:07:49.731Z,100937.28
2022-10-13T02:10:25.292Z,100937.75
2022-10-13T02:12:51.738Z,100933.84
2022-10-13T02:15:21.948Z,100940.28
2022-10-13T02:17:48.503Z,100928.28
2022-10-13T02:20:16.756Z,100926.84
2022-10-13T02:22:48.443Z,100925.41
2022-10-13T02:25:14.943Z,100924.78
2022-10-13T02:27:41.604Z,100920.47
2022-10-13T02:30:08.451Z,100918.00
2022-10-13T02:32:34.937Z,100924.22
2022-10-13T02:35:01.413Z,100915.50
2022-10-13T02:37:28.004Z,100914.69
2022-10-13T02:39:54.405Z,100918.41
2022-10-13T02:42:21.085Z,100913.25
2022-10-13T02:44:50.017Z,100915.13
2022-10-13T02:47:16.390Z,100908.91
2022-10-13T02:49:45.180Z,100910.56
2022-10-13T02:52:14.296Z,100914.28
2022-10-13T02:54:40.680Z,100915.94
2022-10-13T02:57:07.092Z,100917.84
2022-10-13T02:59:33.557Z,100916.19
2022-10-13T03:02:00.216Z,100918.03
2022-10-13T03:04:26.696Z,100912.63
2022-10-13T03:06:53.097Z,100914.75
2022-10-13T03:09:19.562Z,100918.47
2022-10-13T03:11:45.938Z,100916.00
2022-10-13T03:14:12.411Z,100914.56
2022-10-13T03:16:38.928Z,100909.19
2022-10-13T03:19:05.316Z,100897.81
2022-10-13T03:21:31.668Z,100901.53
2022-10-13T03:23:58.080Z,100896.16
2022-10-13T03:26:24.544Z,100893.69
2022-10-13T03:28:52.197Z,100892.03
2022-10-13T03:31:19.040Z,100896.56
2022-10-13T03:33:45.750Z,100896.56
2022-10-13T03:36:13.516Z,100891.19
2022-10-13T03:38:40.325Z,100891.19
2022-10-13T03:41:17.122Z,100892.03
2022-10-13T03:43:44.337Z,100900.94
2022-10-13T03:46:12.455Z,100906.31
2022-10-13T03:48:39.281Z,100899.28
2022-10-13T03:51:06.586Z,100894.94
2022-10-13T03:53:33.389Z,100895.97
2022-10-13T03:55:59.816Z,100897.03
2022-10-13T03:58:28.645Z,100898.28
2022-10-13T04:00:55.645Z,100895.81
2022-10-13T04:03:22.205Z,100896.25
2022-10-13T04:05:48.682Z,100901.03
2022-10-13T04:08:15.167Z,100897.13
2022-10-13T04:10:41.930Z,100890.06
2022-10-13T04:13:08.426Z,100906.63
2022-10-13T04:15:38.481Z,100901.81
2022-10-13T04:18:05.922Z,100894.44
2022-10-13T04:20:36.424Z,100894.91
2022-10-13T04:23:02.840Z,100900.69
2022-10-13T04:25:29.228Z,100895.16
2022-10-13T04:27:55.632Z,100895.31
2022-10-13T04:30:24.476Z,100899.22
2022-10-13T04:32:50.911Z,100899.81
2022-10-13T04:35:17.612Z,100885.81
2022-10-13T04:37:45.199Z,100890.72
2022-10-13T04:40:11.923Z,100885.25
2022-10-13T04:42:38.319Z,100882.72
2022-10-13T04:45:05.087Z,100888.47
2022-10-13T04:47:36.769Z,100886.97
2022-10-13T04:50:03.771Z,100880.75
2022-10-13T04:52:30.169Z,100886.97
2022-10-13T04:54:56.579Z,100882.59
2022-10-13T04:57:23.011Z,100875.56
2022-10-13T04:59:49.529Z,100878.50
2022-10-13T05:02:17.433Z,100879.53
2022-10-13T05:04:44.103Z,100869.16
2022-10-13T05:07:17.952Z,100870.69
2022-10-13T05:09:45.049Z,100868.28
2022-10-13T05:12:11.749Z,100867.72
2022-10-13T05:14:38.443Z,100857.84
2022-10-13T05:17:04.903Z,100857.41
2022-10-13T05:19:31.340Z,100860.72
2022-10-13T05:21:57.737Z,100857.72
2022-10-13T05:24:31.252Z,100847.31
2022-10-13T05:27:01.076Z,100847.25
2022-10-13T05:29:27.517Z,100845.22
2022-10-13T05:31:53.996Z,100851.91
2022-10-13T05:34:20.436Z,100848.38
2022-10-13T05:36:46.869Z,100850.25
2022-10-13T05:39:13.290Z,100847.28
2022-10-13T05:41:39.798Z,100855.13
2022-10-13T05:44:09.793Z,100851.94
2022-10-13T05:46:36.298Z,100851.88
2022-10-13T05:49:03.228Z,100859.28
2022-10-13T08:51:12.797Z,100791.91
2022-10-13T08:53:41.242Z,100780.13
2022-10-13T08:56:09.452Z,100794.06
2022-10-13T08:58:37.171Z,100791.81
2022-10-13T09:01:03.846Z,100798.50
2022-10-13T09:03:30.759Z,100784.31
2022-10-13T09:06:17.412Z,100790.25
2022-10-13T09:08:46.868Z,100792.66
2022-10-13T09:11:13.396Z,100788.78
2022-10-13T09:13:40.536Z,100784.97
2022-10-13T09:16:07.343Z,100785.72
2022-10-13T09:18:34.340Z,100773.97
2022-10-13T09:21:16.043Z,100780.09
2022-10-13T09:23:42.501Z,100775.38
2022-10-13T09:26:09.786Z,100784.53
2022-10-13T09:28:36.257Z,100789.59
2022-10-13T09:31:03.157Z,100800.81
2022-10-13T09:33:29.636Z,100796.63
2022-10-13T09:35:56.016Z,100793.47
2022-10-13T09:38:25.108Z,100789.16
2022-10-13T09:41:00.231Z,100783.25
2022-10-13T09:43:34.415Z,100779.97
2022-10-13T09:46:02.668Z,100784.84
2022-10-13T09:48:31.369Z,100779.88
2022-10-13T09:50:58.232Z,100779.34
2022-10-13T09:53:35.097Z,100783.94
2022-10-13T09:56:10.615Z,100779.34
2022-10-13T09:58:39.811Z,100770.13
2022-10-13T10:01:06.848Z,100778.81
2022-10-13T10:03:35.679Z,100776.19
2022-10-13T10:06:12.129Z,100772.19
2022-10-13T10:09:04.624Z,100769.84
2022-10-13T10:11:41.662Z,100773.25
2022-10-13T10:14:17.040Z,100775.00
2022-10-13T10:16:46.571Z,100764.50
2022-10-13T10:19:13.193Z,100759.41
2022-10-13T10:21:58.684Z,100752.94
2022-10-13T10:24:29.916Z,100755.72
2022-10-13T10:27:25.830Z,100756.84
2022-10-13T10:30:03.016Z,100749.56
2022-10-13T10:32:48.364Z,100754.75
2022-10-13T10:35:24.665Z,100753.97
2022-10-13T10:38:01.122Z,100755.09
2022-10-13T10:40:50.672Z,100752.97
2022-10-13T10:43:26.183Z,100754.66
2022-10-13T10:45:56.528Z,100748.19
2022-10-13T10:48:24.273Z,100748.50
2022-10-13T10:50:51.393Z,100750.19
2022-10-13T10:53:22.493Z,100752.41
2022-10-13T10:55:54.028Z,100734.53
2022-10-13T10:58:23.226Z,100734.03
2022-10-13T11:00:55.554Z,100724.28
2022-10-13T11:03:21.985Z,100734.19
2022-10-13T11:05:57.523Z,100722.78
2022-10-13T11:08:28.271Z,100723.06
2022-10-13T11:11:13.561Z,100715.75
2022-10-13T11:13:50.452Z,100714.16
2022-10-13T11:16:30.706Z,100706.84
2022-10-13T11:18:59.373Z,100706.56
2022-10-13T11:21:26.332Z,100704.44
2022-10-13T11:23:52.724Z,100698.50
2022-10-13T11:26:39.412Z,100688.69
2022-10-13T11:29:15.753Z,100693.03
2022-10-13T11:31:53.673Z,100690.03
2022-10-13T11:34:31.189Z,100694.66
2022-10-13T11:36:59.065Z,100678.31
2022-10-13T11:39:28.520Z,100680.44
2022-10-13T11:41:58.437Z,100680.13
2022-10-13T11:44:32.261Z,100675.44
2022-10-13T11:46:58.743Z,100675.94
2022-10-13T11:49:40.401Z,100674.75
2022-10-13T11:52:16.947Z,100669.78
2022-10-13T11:54:55.829Z,100662.06
2022-10-13T11:57:23.872Z,100661.19
2022-10-13T11:59:54.889Z,100662.50
2022-10-13T12:02:23.601Z,100653.69
2022-10-13T12:05:06.825Z,100652.56
2022-10-13T12:07:37.256Z,100645.94
2022-10-13T12:10:06.432Z,100653.00
2022-10-13T12:12:33.762Z,100647.50
2022-10-13T12:15:04.134Z,100639.28
2022-10-13T12:17:36.041Z,100634.31
2022-10-13T12:20:18.114Z,100636.25
2022-10-13T12:22:48.334Z,100639.00
2022-10-13T12:25:18.750Z,100640.88
2022-10-13T12:27:47.098Z,100627.75
2022-10-13T12:30:21.487Z,100635.41
2022-10-13T12:32:52.464Z,100637.06
2022-10-13T12:35:34.366Z,100628.56
2022-10-13T12:38:02.568Z,100631.03
2022-10-13T12:40:29.554Z,100624.16
2022-10-13T12:42:56.171Z,100622.75
2022-10-13T12:45:26.299Z,100612.91
2022-10-13T12:47:54.287Z,100618.28
2022-10-13T12:50:20.635Z,100615.50
2022-10-13T12:52:47.420Z,100629.69
2022-10-13T12:55:16.544Z,100619.19
2022-10-13T12:57:45.299Z,100613.38
2022-10-13T13:00:20.915Z,100612.22
2022-10-13T13:02:52.084Z,100614.56
2022-10-13T13:05:34.193Z,100612.00
2022-10-13T13:08:01.363Z,100613.28
2022-10-13T13:10:27.897Z,100619.19
2022-10-13T13:12:58.212Z,100614.19
2022-10-13T13:15:24.564Z,100611.41
2022-10-13T13:17:58.992Z,100606.91
2022-10-13T13:20:32.852Z,100602.97
2022-10-13T13:22:59.632Z,100605.06
2022-10-13T13:25:26.417Z,100604.09
2022-10-13T13:27:53.107Z,100606.97
2022-10-13T13:30:20.592Z,100601.13
2022-10-13T13:32:47.190Z,100598.25
2022-10-13T13:35:13.792Z,100602.84
2022-10-13T13:37:41.712Z,100604.44
2022-10-13T13:40:13.993Z,100598.97
2022-10-13T13:42:40.365Z,100607.28
2022-10-13T13:45:07.105Z,100612.94
2022-10-13T13:47:33.562Z,100599.56
2022-10-13T13:50:00.477Z,100596.16
2022-10-13T13:52:27.056Z,100586.75
2022-10-13T13:54:53.606Z,100592.38
2022-10-13T13:57:20.756Z,100589.25
2022-10-13T13:59:47.548Z,100580.66
2022-10-13T14:02:18.617Z,100582.16
2022-10-13T14:04:45.415Z,100581.69
2022-10-13T14:07:11.916Z,100581.81
2022-10-13T14:09:38.284Z,100587.94
2022-10-13T14:12:04.950Z,100586.34
2022-10-13T14:14:31.838Z,100582.63
2022-10-13T14:16:59.122Z,100577.19
2022-10-13T14:19:25.625Z,100572.63
2022-10-13T14:21:52.098Z,100566.91
2022-10-13T14:24:18.953Z,100572.13
2022-10-13T14:26:45.449Z,100572.72
2022-10-13T14:29:11.874Z,100569.47
2022-10-13T14:31:38.311Z,100570.03
2022-10-13T14:34:04.687Z,100568.97
2022-10-13T14:36:31.122Z,100570.06
2022-10-13T14:38:58.044Z,100570.31
2022-10-13T14:41:24.583Z,100566.53
2022-10-13T14:43:54.719Z,100571.16
2022-10-13T14:46:21.382Z,100578.28
2022-10-13T14:48:47.796Z,100572.00
2022-10-13T14:51:14.197Z,100576.63
2022-10-13T14:53:41.593Z,100572.56
2022-10-13T14:56:17.573Z,100567.13
2022-10-13T14:58:44.025Z,100571.25
2022-10-13T15:01:10.522Z,100571.00
2022-10-13T15:03:37.122Z,100577.34
2022-10-13T15:06:03.674Z,100572.72
2022-10-13T15:08:30.070Z,100575.78
2022-10-13T15:11:00.734Z,100572.81
2022-10-13T15:13:27.282Z,100573.69
2022-10-13T15:15:53.710Z,100575.34
2022-10-13T15:18:20.152Z,100571.03
2022-10-13T15:20:47.534Z,100574.63
2022-10-13T15:23:14.264Z,100579.53
2022-10-13T15:25:46.303Z,100577.13
2022-10-13T15:28:12.751Z,100572.53
2022-10-13T15:30:39.215Z,100575.81
2022-10-13T15:33:05.609Z,100579.41
2022-10-13T15:35:32.657Z,100572.03
2022-10-13T15:37:59.096Z,100567.13
2022-10-13T15:40:25.486Z,100563.34
2022-10-13T15:42:53.170Z,100561.19
2022-10-13T15:45:19.635Z,100560.38
2022-10-13T15:47:46.019Z,100558.53
2022-10-13T15:50:12.482Z,100562.38
2022-10-13T15:52:40.044Z,100555.84
2022-10-13T15:55:07.391Z,100558.06
2022-10-13T15:57:34.835Z,100551.00
2022-10-13T16:00:01.257Z,100548.28
2022-10-13T16:02:27.671Z,100549.44
2022-10-13T16:04:54.191Z,100546.72
2022-10-13T16:07:20.555Z,100540.75
2022-10-13T16:09:47.010Z,100554.41
2022-10-13T16:12:15.868Z,100546.75
2022-10-13T16:14:42.333Z,100550.63
2022-10-13T16:17:08.782Z,100545.19
2022-10-13T16:19:35.193Z,100542.19
2022-10-13T16:22:01.613Z,100543.03
2022-10-13T16:24:28.730Z,100540.84
2022-10-13T16:26:55.161Z,100552.88
2022-10-13T16:29:21.554Z,100545.50
2022-10-13T16:31:48.006Z,100545.25
2022-10-13T16:34:14.439Z,100543.38
2022-10-13T16:36:40.847Z,100541.19
2022-10-13T16:39:07.336Z,100545.28
2022-10-13T16:41:39.862Z,100551.31
2022-10-13T16:44:06.317Z,100548.59
2022-10-13T16:46:35.909Z,100548.03
2022-10-13T16:49:07.775Z,100550.25
2022-10-13T16:52:28.843Z,100547.47
2022-10-13T17:02:37.768Z,100545.84
2022-10-13T17:17:31.523Z,100555.94
2022-10-13T17:23:04.312Z,100564.38
2022-10-13T17:26:23.092Z,100568.72
2022-10-13T17:28:55.686Z,100557.84
2022-10-13T17:31:22.992Z,100561.06
2022-10-13T17:33:49.973Z,100558.34
2022-10-13T17:36:18.136Z,100561.34
2022-10-13T17:38:44.759Z,100566.53
2022-10-13T17:41:14.058Z,100551.56
2022-10-13T17:43:41.180Z,100552.91
2022-10-13T17:46:34.402Z,100558.88
2022-10-13T17:48:57.546Z,100567.59
2022-10-13T17:51:24.710Z,100573.56
2022-10-13T17:53:52.002Z,100558.59
2022-10-13T17:56:21.737Z,100566.97
2022-10-13T17:58:49.738Z,100563.19
2022-10-13T18:01:17.518Z,100569.97
2022-10-13T18:03:47.662Z,100556.88
2022-10-13T18:06:14.565Z,100561.78
2022-10-13T18:08:41.412Z,100550.63
2022-10-13T18:11:09.090Z,100555.25
2022-10-13T18:13:36.093Z,100547.59
2022-10-13T18:16:06.509Z,100556.03
2022-10-13T18:18:33.287Z,100568.00
2022-10-13T18:21:03.989Z,100562.28
2022-10-13T18:23:31.439Z,100557.38
2022-10-13T18:26:01.841Z,100554.13
2022-10-13T18:28:32.350Z,100560.91
2022-10-13T18:31:02.478Z,100559.81
2022-10-13T18:33:28.919Z,100564.66
2022-10-13T18:35:55.340Z,100569.56
2022-10-13T18:38:23.286Z,100569.00
2022-10-13T18:40:49.758Z,100574.72
2022-10-13T18:43:16.147Z,100577.72
2022-10-13T18:45:42.601Z,100575.25
2022-10-13T18:48:09.020Z,100579.06
2022-10-13T18:50:36.003Z,100572.81
2022-10-13T18:53:02.408Z,100569.25
2022-10-13T18:55:28.908Z,100568.19
2022-10-13T18:57:55.946Z,100577.16
2022-10-13T19:05:32.376Z,100557.56
2022-10-13T19:08:04.789Z,100567.38
2022-10-13T19:10:31.171Z,100563.28
2022-10-13T19:12:57.531Z,100571.16
2022-10-13T19:15:26.455Z,100568.97
2022-10-13T19:17:52.962Z,100561.91
2022-10-13T19:20:21.775Z,100562.16
2022-10-13T19:22:49.443Z,100559.69
2022-10-13T19:25:15.912Z,100566.25
2022-10-13T19:27:42.423Z,100568.41
2022-10-13T19:30:09.208Z,100565.09
2022-10-13T19:32:40.496Z,100564.56
2022-10-13T19:35:11.301Z,100558.03
2022-10-13T19:37:40.070Z,100565.63
2022-10-13T19:40:07.959Z,100559.06
2022-10-13T19:42:34.415Z,100560.41
2022-10-13T19:45:03.690Z,100560.16
2022-10-13T19:47:31.530Z,100555.22
2022-10-13T19:49:57.902Z,100557.63
2022-10-13T19:52:26.957Z,100561.13
2022-10-13T19:54:53.346Z,100562.72
2022-10-13T19:57:19.994Z,100563.25
2022-10-13T19:59:47.852Z,100568.38
2022-10-13T20:02:14.802Z,100559.41
2022-10-13T20:04:41.157Z,100569.69
2022-10-13T20:07:07.591Z,100561.25
2022-10-13T20:09:33.979Z,100565.28
2022-10-13T20:12:00.335Z,100573.72
2022-10-13T20:14:26.723Z,100570.19
2022-10-13T20:16:53.546Z,100577.75
2022-10-13T20:19:20.216Z,100572.31
2022-10-13T20:21:48.006Z,100582.66
2022-10-13T20:24:14.591Z,100576.66
2022-10-13T20:26:41.098Z,100571.22
2022-10-13T20:29:07.716Z,100574.19
2022-10-13T20:31:34.896Z,100565.25
2022-10-13T20:34:01.271Z,100561.16
2022-10-13T20:36:28.314Z,100564.13
2022-10-13T20:38:55.003Z,100569.00
2022-10-13T20:41:25.879Z,100558.66
2022-10-13T20:43:53.231Z,100574.38
2022-10-13T20:46:20.575Z,100578.16
2022-10-13T20:51:34.223Z,100576.50
2022-10-13T20:54:00.772Z,100578.91
2022-10-13T20:56:27.325Z,100580.81
2022-10-13T20:58:54.113Z,100577.53
2022-10-13T21:01:21.773Z,100574.25
2022-10-13T21:03:54.350Z,100577.22
2022-10-13T21:06:21.425Z,100566.06
2022-10-13T21:08:47.807Z,100571.50
2022-10-13T21:11:15.141Z,100570.13
2022-10-13T21:13:42.269Z,100575.28
2022-10-13T21:16:09.783Z,100573.09
2022-10-13T21:18:36.561Z,100574.16
2022-10-13T21:21:11.017Z,100569.81
2022-10-13T21:23:38.110Z,100576.31
2022-10-13T21:26:05.281Z,100564.63
2022-10-13T21:28:32.175Z,100562.19
2022-10-13T21:31:02.454Z,100567.63
2022-10-13T21:33:28.973Z,100560.53
2022-10-13T21:35:55.450Z,100557.56
2022-10-13T21:38:22.014Z,100557.81
2022-10-13T21:40:51.681Z,100550.75
2022-10-13T21:43:20.407Z,100546.41
2022-10-13T21:45:46.758Z,100551.81
2022-10-13T21:48:13.090Z,100548.56
2022-10-13T21:50:39.493Z,100542.56
2022-10-13T21:53:05.810Z,100542.81
2022-10-13T21:55:33.190Z,100536.81
2022-10-13T21:58:05.256Z,100538.16
2022-10-13T22:00:32.009Z,100540.28
2022-10-13T22:02:58.456Z,100542.47
2022-10-13T22:05:24.882Z,100545.19
2022-10-13T22:07:51.227Z,100539.97
2022-10-13T22:10:17.639Z,100543.78
2022-10-13T22:12:44.126Z,100541.06
2022-10-13T22:15:10.694Z,100546.50
2022-10-13T22:17:37.081Z,100541.34
2022-10-13T22:20:03.602Z,100537.53
2022-10-13T22:22:31.078Z,100539.44
2022-10-13T22:24:57.567Z,100533.19
2022-10-13T22:27:24.014Z,100533.19
2022-10-13T22:29:50.485Z,100534.28
2022-10-13T22:32:16.847Z,100533.19
2022-10-13T22:34:45.595Z,100538.06
2022-10-13T22:37:11.999Z,100536.97
2022-10-13T22:39:38.343Z,100538.06
2022-10-13T22:42:04.695Z,100538.06
2022-10-13T22:44:31.039Z,100528.25
2022-10-13T22:46:57.415Z,100533.69
2022-10-13T22:49:23.769Z,100531.81
2022-10-13T22:51:50.112Z,100532.63
2022-10-13T22:54:16.487Z,100537.25
2022-10-13T22:56:43.219Z,100532.63
2022-10-13T22:59:09.623Z,100533.69
2022-10-13T23:01:36.215Z,100535.59
2022-10-13T23:04:02.935Z,100536.41
2022-10-13T23:06:30.833Z,100540.19
2022-10-13T23:08:59.990Z,100537.47
2022-10-13T23:11:26.415Z,100529.34
2022-10-13T23:13:52.757Z,100532.03
2022-10-13T23:16:21.268Z,100529.34
2022-10-13T23:18:47.899Z,100520.38
2022-10-13T23:21:15.616Z,100522.28
2022-10-13T23:23:42.269Z,100531.25
2022-10-13T23:26:10.435Z,100524.16
2022-10-13T23:28:36.932Z,100522.28
2022-10-13T23:31:04.738Z,100516.88
2022-10-13T23:33:31.223Z,100516.88
2022-10-13T23:35:58.606Z,100516.88
2022-10-13T23:38:28.353Z,100519.59
2022-10-13T23:40:54.813Z,100521.19
2022-10-13T23:43:21.544Z,100528.25
2022-10-13T23:45:47.937Z,100514.97
2022-10-13T23:48:14.933Z,100516.59
2022-10-13T23:50:41.258Z,100520.38
2022-10-13T23:53:07.940Z,100515.78
2022-10-13T23:55:37.112Z,100514.16
2022-10-13T23:58:03.450Z,100512.50
